createdAt,value
2022-08-06T00:00:03.573Z,100977.78
2022-08-06T00:02:59.326Z,100989.19
2022-08-06T00:06:02.061Z,100990.84
2022-08-06T00:09:05.552Z,100992.72
2022-08-06T00:12:10.739Z,100995.31
2022-08-06T00:15:15.138Z,100999.00
2022-08-06T00:18:18.346Z,100991.78
2022-08-06T00:21:42.189Z,100997.88
2022-08-06T00:24:43.632Z,101010.34
2022-08-06T00:27:52.133Z,101010.25
2022-08-06T00:30:58.227Z,101014.31
2022-08-06T00:34:02.503Z,101009.19
2022-08-06T00:37:05.174Z,101014.09
2022-08-06T00:40:24.361Z,101020.31
2022-08-06T00:43:39.520Z,101040.06
2022-08-06T00:46:44.948Z,101048.03
2022-08-06T00:49:49.699Z,101043.06
2022-08-06T00:52:52.679Z,101051.75
2022-08-06T00:56:01.266Z,101050.97
2022-08-06T00:59:04.863Z,101053.63
2022-08-06T01:02:18.774Z,101053.53
2022-08-06T01:06:04.495Z,101051.41
2022-08-06T01:08:45.316Z,101053.22
2022-08-06T01:11:48.215Z,101057.19
2022-08-06T01:15:02.535Z,101070.56
2022-08-06T01:18:12.298Z,101068.59
2022-08-06T01:22:00.422Z,101067.72
2022-08-06T01:25:10.415Z,101056.03
2022-08-06T01:28:18.617Z,101071.97
2022-08-06T01:31:30.593Z,101069.34
2022-08-06T01:34:47.230Z,101067.81
2022-08-06T01:38:01.022Z,101072.41
2022-08-06T01:41:07.356Z,101073.06
2022-08-06T01:44:15.826Z,101071.53
2022-08-06T01:47:21.299Z,101074.69
2022-08-06T01:50:29.140Z,101079.00
2022-08-06T01:54:05.278Z,101083.81
2022-08-06T01:57:03.723Z,101083.47
2022-08-06T02:00:13.249Z,101088.38
2022-08-06T02:03:24.176Z,101091.94
2022-08-06T02:06:36.804Z,101100.09
2022-08-06T02:09:41.562Z,101096.00
2022-08-06T02:12:47.034Z,101099.59
2022-08-06T02:15:59.870Z,101103.84
2022-08-06T02:19:12.357Z,101095.03
2022-08-06T02:22:16.298Z,101107.66
2022-08-06T02:25:31.094Z,101099.50
2022-08-06T02:28:36.109Z,101089.19
2022-08-06T02:31:50.505Z,101096.78
2022-08-06T02:34:54.770Z,101095.56
2022-08-06T02:38:07.626Z,101104.88
2022-08-06T02:41:18.918Z,101089.09
2022-08-06T02:44:33.317Z,101097.25
2022-08-06T02:47:55.804Z,101104.16
2022-08-06T02:51:43.276Z,101103.78
2022-08-06T02:54:46.871Z,101115.72
2022-08-06T02:57:54.527Z,101125.88
2022-08-06T03:01:04.678Z,101133.19
2022-08-06T03:04:15.366Z,101135.31
2022-08-06T03:07:26.505Z,101122.31
2022-08-06T03:10:33.527Z,101125.50
2022-08-06T03:13:39.446Z,101141.66
2022-08-06T03:16:46.350Z,101142.66
2022-08-06T03:19:59.077Z,101140.47
2022-08-06T03:23:08.181Z,101152.16
2022-08-06T03:26:12.199Z,101154.91
2022-08-06T03:29:15.464Z,101152.25
2022-08-06T03:32:51.406Z,101173.38
2022-08-06T03:35:50.746Z,101163.00
2022-08-06T03:38:58.212Z,101163.41
2022-08-06T03:42:07.569Z,101177.59
2022-08-06T03:45:35.808Z,101179.84
2022-08-06T03:48:38.945Z,101176.50
2022-08-06T03:51:52.258Z,101191.16
2022-08-06T03:55:04.314Z,101186.53
2022-08-06T03:58:11.377Z,101199.34
2022-08-06T04:01:20.115Z,101210.59
2022-08-06T04:04:27.765Z,101208.72
2022-08-06T04:07:54.138Z,101210.75
2022-08-06T04:10:57.363Z,101215.50
2022-08-06T04:14:06.070Z,101214.09
2022-08-06T04:17:12.201Z,101226.91
2022-08-06T04:20:41.902Z,101228.13
2022-08-06T04:23:42.263Z,101232.88
2022-08-06T04:26:51.067Z,101235.31
2022-08-06T04:29:58.569Z,101236.81
2022-08-06T04:33:04.072Z,101246.84
2022-08-06T04:36:17.610Z,101245.38
2022-08-06T04:39:25.595Z,101251.69
2022-08-06T04:42:40.321Z,101261.28
2022-08-06T04:46:17.460Z,101275.53
2022-08-06T04:49:14.266Z,101272.69
2022-08-06T04:52:46.743Z,101276.06
2022-08-06T04:56:02.941Z,101281.66
2022-08-06T04:59:07.446Z,101284.63
2022-08-06T05:02:10.686Z,101298.47
2022-08-06T05:05:20.959Z,101300.59
2022-08-06T05:08:26.738Z,101301.72
2022-08-06T05:11:57.267Z,101302.66
2022-08-06T05:15:04.017Z,101305.59
2022-08-06T05:18:14.975Z,101307.84
2022-08-06T05:22:05.788Z,101309.09
2022-08-06T05:25:02.677Z,101324.19
2022-08-06T05:28:13.979Z,101331.50
2022-08-06T05:31:30.586Z,101335.34
2022-08-06T05:34:40.828Z,101345.88
2022-08-06T05:38:01.259Z,101348.91
2022-08-06T05:41:08.404Z,101355.34
2022-08-06T05:44:12.497Z,101365.28
2022-08-06T05:47:23.033Z,101365.78
2022-08-06T05:50:30.797Z,101370.84
2022-08-06T05:54:02.674Z,101382.03
2022-08-06T05:57:07.077Z,101377.16
2022-08-06T06:00:42.193Z,101376.50
2022-08-06T06:03:39.989Z,101382.28
2022-08-06T06:06:43.404Z,101391.63
2022-08-06T06:09:56.615Z,101382.94
2022-08-06T06:13:25.178Z,101394.19
2022-08-06T06:16:35.065Z,101388.06
2022-08-06T06:19:52.429Z,101393.94
2022-08-06T06:23:01.688Z,101387.63
2022-08-06T06:26:33.010Z,101394.03
2022-08-06T06:30:05.623Z,101397.44
2022-08-06T06:33:16.654Z,101401.44
2022-08-06T06:36:27.977Z,101396.56
2022-08-06T06:39:37.496Z,101402.44
2022-08-06T06:42:46.575Z,101403.94
2022-08-06T06:46:05.251Z,101408.91
2022-08-06T06:50:00.050Z,101410.16
2022-08-06T06:52:52.988Z,101412.97
2022-08-06T06:56:02.661Z,101416.56
2022-08-06T06:59:16.663Z,101421.84
2022-08-06T07:02:23.750Z,101425.13
2022-08-06T07:06:06.309Z,101424.91
2022-08-06T07:08:58.368Z,101430.72
2022-08-06T07:12:04.122Z,101443.69
2022-08-06T07:15:18.929Z,101440.91
2022-08-06T07:18:26.075Z,101446.31
2022-08-06T07:21:34.155Z,101469.06
2022-08-06T07:24:45.464Z,101468.91
2022-08-06T07:27:55.537Z,101460.63
2022-08-06T07:31:04.465Z,101473.19
2022-08-06T07:34:12.636Z,101474.44
2022-08-06T07:37:22.797Z,101476.25
2022-08-06T07:40:28.821Z,101474.94
2022-08-06T07:43:35.918Z,101479.09
2022-08-06T07:46:47.384Z,101472.41
2022-08-06T07:50:00.664Z,101473.69
2022-08-06T07:53:05.464Z,101484.50
2022-08-06T07:56:10.321Z,101479.56
2022-08-06T07:59:15.132Z,101486.00
2022-08-06T08:02:18.942Z,101487.22
2022-08-06T08:06:00.035Z,101503.03
2022-08-06T08:09:10.679Z,101506.28
2022-08-06T08:12:25.704Z,101506.09
2022-08-06T08:15:43.516Z,101510.75
2022-08-06T08:18:46.407Z,101508.44
2022-08-06T08:21:49.684Z,101511.69
2022-08-06T08:24:54.615Z,101521.66
2022-08-06T08:27:57.374Z,101522.91
2022-08-06T08:31:08.873Z,101514.63
2022-08-06T08:34:27.241Z,101518.25
2022-08-06T08:37:31.814Z,101516.91
2022-08-06T08:40:38.023Z,101516.66
2022-08-06T08:44:00.442Z,101528.59
2022-08-06T08:47:12.469Z,101523.38
2022-08-06T08:50:18.466Z,101525.78
2022-08-06T08:53:45.765Z,101531.44
2022-08-06T08:57:10.696Z,101540.50
2022-08-06T09:00:15.836Z,101548.09
2022-08-06T09:03:29.874Z,101534.22
2022-08-06T09:06:39.741Z,101535.94
2022-08-06T09:09:47.303Z,101524.53
2022-08-06T09:13:22.740Z,101523.09
2022-08-06T09:16:31.587Z,101526.47
2022-08-06T09:19:37.433Z,101528.91
2022-08-06T09:22:45.279Z,101527.16
2022-08-06T09:25:51.790Z,101523.13
2022-08-06T09:28:56.154Z,101541.69
2022-08-06T09:32:00.188Z,101534.84
2022-08-06T09:35:04.725Z,101532.38
2022-08-06T09:38:19.533Z,101527.25
2022-08-06T09:41:24.579Z,101533.75
2022-08-06T09:44:37.151Z,101528.50
2022-08-06T09:47:40.776Z,101526.31
2022-08-06T09:50:47.184Z,101538.56
2022-08-06T09:54:05.521Z,101541.59
2022-08-06T09:57:16.801Z,101554.63
2022-08-06T10:00:29.914Z,101563.59
2022-08-06T10:04:05.039Z,101568.69
2022-08-06T10:07:06.192Z,101568.56
2022-08-06T10:10:10.735Z,101564.81
2022-08-06T10:13:19.266Z,101551.78
2022-08-06T10:16:29.088Z,101544.47
2022-08-06T10:19:35.757Z,101548.59
2022-08-06T10:22:51.587Z,101543.00
2022-08-06T10:25:54.683Z,101553.91
2022-08-06T10:29:03.449Z,101561.78
2022-08-06T10:32:11.649Z,101576.59
2022-08-06T10:35:18.887Z,101578.19
2022-08-06T10:38:34.609Z,101573.31
2022-08-06T10:42:00.434Z,101575.75
2022-08-06T10:45:08.046Z,101555.22
2022-08-06T10:48:59.970Z,101543.66
2022-08-06T10:51:56.044Z,101534.88
2022-08-06T10:55:01.858Z,101541.50
2022-08-06T10:58:04.711Z,101548.44
2022-08-06T11:01:09.953Z,101547.63
2022-08-06T11:04:26.552Z,101539.34
2022-08-06T11:08:09.608Z,101524.09
2022-08-06T11:11:31.083Z,101534.16
2022-08-06T11:14:37.864Z,101552.88
2022-08-06T11:17:46.021Z,101552.72
2022-08-06T11:20:51.346Z,101556.16
2022-08-06T11:24:02.555Z,101560.72
2022-08-06T11:27:10.771Z,101542.56
2022-08-06T11:30:15.122Z,101541.09
2022-08-06T11:33:21.412Z,101531.88
2022-08-06T11:36:29.715Z,101529.81
2022-08-06T11:39:53.120Z,101538.47
2022-08-06T11:42:56.557Z,101546.09
2022-08-06T11:46:31.577Z,101541.34
2022-08-06T11:49:44.167Z,101525.72
2022-08-06T11:52:48.794Z,101533.13
2022-08-06T11:56:05.704Z,101533.28
2022-08-06T11:59:15.873Z,101529.91
2022-08-06T12:02:55.967Z,101532.97
2022-08-06T12:06:00.431Z,101530.22
2022-08-06T12:09:16.041Z,101530.75
2022-08-06T12:12:38.369Z,101523.13
2022-08-06T12:15:59.526Z,101526.16
2022-08-06T12:19:12.405Z,101536.59
2022-08-06T12:22:16.361Z,101550.56
2022-08-06T12:25:19.921Z,101550.41
2022-08-06T12:28:24.967Z,101557.97
2022-08-06T12:31:35.044Z,101547.19
2022-08-06T12:34:40.894Z,101549.28
2022-08-06T12:38:01.948Z,101560.06
2022-08-06T12:41:09.533Z,101549.63
2022-08-06T12:44:20.204Z,101538.94
2022-08-06T12:48:03.340Z,101538.19
2022-08-06T12:51:11.485Z,101541.00
2022-08-06T12:54:26.068Z,101540.47
2022-08-06T12:57:57.933Z,101530.03
2022-08-06T13:00:56.473Z,101545.75
2022-08-06T13:04:06.688Z,101547.94
2022-08-06T13:07:14.430Z,101538.72
2022-08-06T13:10:35.354Z,101531.66
2022-08-06T13:14:13.045Z,101530.91
2022-08-06T13:17:18.921Z,101535.03
2022-08-06T13:20:40.436Z,101541.47
2022-08-06T13:23:49.388Z,101548.06
2022-08-06T13:26:54.653Z,101545.00
2022-08-06T13:30:32.526Z,101560.13
2022-08-06T13:33:26.681Z,101552.56
2022-08-06T13:36:32.674Z,101555.38
2022-08-06T13:39:38.349Z,101539.66
2022-08-06T13:42:51.300Z,101540.84
2022-08-06T13:46:06.226Z,101528.41
2022-08-06T13:49:14.957Z,101534.09
2022-08-06T13:52:18.081Z,101548.09
2022-08-06T13:55:27.342Z,101540.03
2022-08-06T13:58:49.856Z,101528.22
2022-08-06T14:01:53.013Z,101522.56
2022-08-06T14:04:56.333Z,101523.31
2022-08-06T14:08:00.089Z,101529.72
2022-08-06T14:11:04.578Z,101531.88
2022-08-06T14:14:07.292Z,101542.19
2022-08-06T14:17:09.888Z,101535.28
2022-08-06T14:20:17.087Z,101530.50
2022-08-06T14:23:26.587Z,101530.63
2022-08-06T14:26:44.609Z,101536.66
2022-08-06T14:30:26.367Z,101525.75
2022-08-06T14:33:19.129Z,101530.66
2022-08-06T14:36:29.537Z,101525.75
2022-08-06T14:39:59.165Z,101525.91
2022-08-06T14:43:17.594Z,101531.22
2022-08-06T14:46:20.210Z,101525.84
2022-08-06T14:49:45.658Z,101528.31
2022-08-06T14:52:51.076Z,101531.47
2022-08-06T14:56:07.365Z,101534.03
2022-08-06T14:59:12.283Z,101531.94
2022-08-06T15:02:16.699Z,101529.41
2022-08-06T15:05:41.602Z,101523.59
2022-08-06T15:08:43.544Z,101516.25
2022-08-06T15:12:00.431Z,101520.69
2022-08-06T15:15:09.204Z,101527.06
2022-08-06T15:18:54.375Z,101535.47
2022-08-06T15:21:51.381Z,101527.22
2022-08-06T15:24:59.971Z,101525.38
2022-08-06T15:28:04.866Z,101519.63
2022-08-06T15:31:08.918Z,101512.84
2022-08-06T15:34:20.300Z,101512.66
2022-08-06T15:37:54.971Z,101512.78
2022-08-06T15:40:52.189Z,101508.81
2022-08-06T15:43:55.519Z,101505.03
2022-08-06T15:47:00.624Z,101507.50
2022-08-06T15:50:05.658Z,101502.91
2022-08-06T15:53:23.162Z,101506.75
2022-08-06T15:56:33.870Z,101501.13
2022-08-06T15:59:52.087Z,101501.91
2022-08-06T16:02:56.561Z,101498.94
2022-08-06T16:06:10.458Z,101509.06
2022-08-06T16:09:27.067Z,101498.78
2022-08-06T16:12:31.121Z,101489.13
2022-08-06T16:15:34.306Z,101493.59
2022-08-06T16:18:49.160Z,101485.75
2022-08-06T16:21:55.309Z,101486.78
2022-08-06T16:24:59.510Z,101484.56
2022-08-06T16:28:01.988Z,101466.66
2022-08-06T16:31:11.222Z,101468.81
2022-08-06T16:34:23.035Z,101472.63
2022-08-06T16:40:54.487Z,101478.47
2022-08-06T16:43:57.523Z,101472.31
2022-08-06T16:47:01.496Z,101472.25
2022-08-06T16:54:13.397Z,101484.63
2022-08-06T16:56:58.654Z,101484.75
2022-08-06T17:00:01.301Z,101484.91
2022-08-06T17:06:31.432Z,101479.41
2022-08-06T17:09:47.974Z,101482.03
2022-08-06T17:16:23.369Z,101498.59
2022-08-06T17:19:32.594Z,101486.63
2022-08-06T17:22:36.631Z,101487.72
2022-08-06T17:25:51.013Z,101489.47
2022-08-06T17:28:54.298Z,101496.53
2022-08-06T17:31:58.979Z,101494.97
2022-08-06T17:35:06.104Z,101494.38
2022-08-06T17:38:16.066Z,101493.56
2022-08-06T17:41:19.329Z,101493.22
2022-08-06T17:42:28.415Z,101474.88
2022-08-06T17:44:22.284Z,101485.16
2022-08-06T17:47:49.835Z,101482.59
2022-08-06T17:50:49.290Z,101489.81
2022-08-06T17:53:55.217Z,101484.94
2022-08-06T17:56:58.439Z,101485.28
2022-08-06T18:00:02.824Z,101488.81
2022-08-06T18:03:05.836Z,101484.06
2022-08-06T18:06:16.922Z,101490.25
2022-08-06T18:10:09.372Z,101480.78
2022-08-06T18:12:48.784Z,101482.72
2022-08-06T18:15:51.985Z,101474.16
2022-08-06T18:18:55.407Z,101478.84
2022-08-06T18:21:59.372Z,101487.16
2022-08-06T18:25:15.312Z,101487.72
2022-08-06T18:28:27.148Z,101486.91
2022-08-06T18:31:59.898Z,101491.31
2022-08-06T18:35:04.417Z,101506.78
2022-08-06T18:38:08.352Z,101510.16
2022-08-06T18:41:15.240Z,101506.84
2022-08-06T18:44:18.499Z,101502.38
2022-08-06T18:47:22.080Z,101508.66
2022-08-06T18:50:25.020Z,101513.22
2022-08-06T18:54:01.391Z,101516.56
2022-08-06T18:56:56.250Z,101521.25
2022-08-06T18:59:58.930Z,101521.59
2022-08-06T19:03:02.404Z,101514.56
2022-08-06T19:06:07.141Z,101516.59
2022-08-06T19:09:10.080Z,101519.69
2022-08-06T19:12:20.717Z,101523.16
2022-08-06T19:15:24.781Z,101531.16
2022-08-06T19:18:51.258Z,101533.81
2022-08-06T19:22:00.220Z,101541.91
2022-08-06T19:25:09.755Z,101540.47
2022-08-06T19:28:32.553Z,101537.84
2022-08-06T19:31:42.363Z,101544.63
2022-08-06T19:34:46.053Z,101541.47
2022-08-06T19:37:59.587Z,101546.06
2022-08-06T19:41:03.740Z,101546.97
2022-08-06T19:44:27.061Z,101545.50
2022-08-06T19:47:35.408Z,101545.25
2022-08-06T19:50:41.354Z,101554.81
2022-08-06T19:53:54.494Z,101548.72
2022-08-06T19:56:57.309Z,101558.34
2022-08-06T20:00:55.249Z,101555.31
2022-08-06T20:03:24.284Z,101556.94
2022-08-06T20:06:54.615Z,101561.84
2022-08-06T20:10:00.091Z,101550.97
2022-08-06T20:13:06.207Z,101561.13
2022-08-06T20:16:13.050Z,101556.47
2022-08-06T20:19:15.561Z,101564.81
2022-08-06T20:22:20.780Z,101575.00
2022-08-06T20:25:23.892Z,101562.16
2022-08-06T20:29:08.855Z,101560.66
2022-08-06T20:31:55.557Z,101571.25
2022-08-06T20:34:58.245Z,101558.69
2022-08-06T20:38:03.368Z,101567.97
2022-08-06T20:41:58.521Z,101559.63
2022-08-06T20:44:32.814Z,101570.78
2022-08-06T20:47:44.895Z,101564.03
2022-08-06T20:50:51.364Z,101567.91
2022-08-06T20:53:56.383Z,101568.84
2022-08-06T20:57:04.813Z,101568.16
2022-08-06T21:00:17.234Z,101562.31
2022-08-06T21:03:28.728Z,101568.06
2022-08-06T21:06:47.441Z,101569.44
2022-08-06T21:09:56.271Z,101571.91
2022-08-06T21:13:01.953Z,101573.97
2022-08-06T21:16:14.370Z,101576.06
2022-08-06T21:23:55.761Z,101583.31
2022-08-06T21:26:59.394Z,101588.84
2022-08-06T21:30:11.514Z,101583.78
2022-08-06T21:33:17.039Z,101591.22
2022-08-06T21:36:20.135Z,101590.59
2022-08-06T21:39:57.231Z,101594.53
2022-08-06T21:42:55.597Z,101594.00
2022-08-06T21:46:04.702Z,101597.94
2022-08-06T21:49:08.452Z,101598.69
2022-08-06T21:52:11.332Z,101603.19
2022-08-06T21:56:38.091Z,101600.66
2022-08-06T21:58:42.656Z,101605.13
2022-08-06T22:02:13.396Z,101604.16
2022-08-06T22:05:16.783Z,101597.88
2022-08-06T22:08:32.411Z,101609.69
2022-08-06T22:12:39.521Z,101609.13
2022-08-06T22:15:02.780Z,101611.34
2022-08-06T22:18:06.703Z,101607.25
2022-08-06T22:21:09.237Z,101609.34
2022-08-06T22:24:16.994Z,101605.84
2022-08-06T22:27:20.817Z,101603.09
2022-08-06T22:30:33.832Z,101604.72
2022-08-06T22:33:58.433Z,101604.50
2022-08-06T22:37:03.797Z,101613.16
2022-08-06T22:40:07.348Z,101604.56
2022-08-06T22:43:18.996Z,101605.88
2022-08-06T22:46:27.117Z,101601.03
2022-08-06T22:49:29.679Z,101597.75
2022-08-06T22:53:02.772Z,101595.81
2022-08-06T22:56:01.755Z,101607.28
2022-08-06T22:59:31.352Z,101597.03
2022-08-06T23:02:28.685Z,101598.19
2022-08-06T23:05:31.738Z,101594.81
2022-08-06T23:08:34.263Z,101594.75
2022-08-06T23:11:36.788Z,101582.34
2022-08-06T23:14:42.304Z,101591.13
2022-08-06T23:17:52.354Z,101590.53
2022-08-06T23:21:20.333Z,101598.66
2022-08-06T23:24:35.339Z,101593.47
2022-08-06T23:27:46.299Z,101590.88
2022-08-06T23:30:53.709Z,101594.50
2022-08-06T23:33:59.986Z,101597.34
2022-08-06T23:37:10.571Z,101590.22
2022-08-06T23:40:16.012Z,101595.50
2022-08-06T23:43:19.497Z,101587.69
2022-08-06T23:46:27.729Z,101589.50
2022-08-06T23:49:31.025Z,101582.63
2022-08-06T23:52:34.375Z,101583.75
2022-08-06T23:55:59.329Z,101581.44
2022-08-06T23:59:02.204Z,101579.84
